sensor_id;sensor_type;location;lat;lon;timestamp;pressure;altitude;pressure_sealevel;temperature;humidity
84271;BME280;74614;50.032;19.566;2024-01-06T00:01:22;97624.83;;;-0.25;80.97
84271;BME280;74614;50.032;19.566;2024-01-06T00:01:27;97624.28;;;-0.29;80.95
84271;BME280;74614;50.032;19.566;2024-01-06T00:03:26;97627.98;;;-0.37;81.20
84271;BME280;74614;50.032;19.566;2024-01-06T00:05:31;97627.26;;;-0.47;81.49
84271;BME280;74614;50.032;19.566;2024-01-06T00:07:23;97631.69;;;-0.38;81.29
84271;BME280;74614;50.032;19.566;2024-01-06T00:09:30;97635.75;;;-0.32;81.32
84271;BME280;74614;50.032;19.566;2024-01-06T00:11:25;97629.56;;;-0.26;81.19
84271;BME280;74614;50.032;19.566;2024-01-06T00:13:27;97624.52;;;-0.27;80.94
84271;BME280;74614;50.032;19.566;2024-01-06T00:15:24;97625.29;;;-0.30;80.99
84271;BME280;74614;50.032;19.566;2024-01-06T00:17:31;97620.56;;;-0.31;81.13
84271;BME280;74614;50.032;19.566;2024-01-06T00:19:24;97618.19;;;-0.35;81.21
84271;BME280;74614;50.032;19.566;2024-01-06T00:21:31;97621.92;;;-0.31;81.05
84271;BME280;74614;50.032;19.566;2024-01-06T00:23:27;97628.49;;;-0.34;81.09
84271;BME280;74614;50.032;19.566;2024-01-06T00:25:26;97625.96;;;-0.27;81.06
84271;BME280;74614;50.032;19.566;2024-01-06T00:27:24;97618.79;;;-0.28;81.19
84271;BME280;74614;50.032;19.566;2024-01-06T00:29:30;97612.75;;;-0.29;81.10
84271;BME280;74614;50.032;19.566;2024-01-06T00:31:24;97609.60;;;-0.23;81.07
84271;BME280;74614;50.032;19.566;2024-01-06T00:33:28;97602.26;;;-0.27;81.12
84271;BME280;74614;50.032;19.566;2024-01-06T00:35:24;97596.33;;;-0.34;81.24
84271;BME280;74614;50.032;19.566;2024-01-06T00:37:27;97594.28;;;-0.24;81.24
84271;BME280;74614;50.032;19.566;2024-01-06T00:39:24;97597.58;;;-0.31;81.02
84271;BME280;74614;50.032;19.566;2024-01-06T00:41:30;97597.58;;;-0.25;81.24
84271;BME280;74614;50.032;19.566;2024-01-06T00:43:26;97598.64;;;-0.24;80.98
84271;BME280;74614;50.032;19.566;2024-01-06T00:45:30;97594.71;;;-0.21;80.85
84271;BME280;74614;50.032;19.566;2024-01-06T00:47:28;97594.51;;;-0.25;81.05
84271;BME280;74614;50.032;19.566;2024-01-06T00:49:27;97592.82;;;-0.28;81.08
84271;BME280;74614;50.032;19.566;2024-01-06T00:51:24;97594.20;;;-0.32;81.35
84271;BME280;74614;50.032;19.566;2024-01-06T00:53:33;97601.01;;;-0.24;81.21
84271;BME280;74614;50.032;19.566;2024-01-06T00:55:23;97603.00;;;-0.22;80.92
84271;BME280;74614;50.032;19.566;2024-01-06T00:57:29;97596.12;;;-0.35;81.16
84271;BME280;74614;50.032;19.566;2024-01-06T00:59:28;97600.44;;;-0.44;81.66
84271;BME280;74614;50.032;19.566;2024-01-06T01:01:28;97601.22;;;-0.40;81.51
84271;BME280;74614;50.032;19.566;2024-01-06T01:03:25;97594.15;;;-0.32;81.37
84271;BME280;74614;50.032;19.566;2024-01-06T01:05:30;97596.27;;;-0.31;81.40
84271;BME280;74614;50.032;19.566;2024-01-06T01:07:28;97595.60;;;-0.31;81.36
84271;BME280;74614;50.032;19.566;2024-01-06T01:09:40;97590.65;;;-0.29;81.61
84271;BME280;74614;50.032;19.566;2024-01-06T01:12:24;97595.54;;;-0.25;81.13
84271;BME280;74614;50.032;19.566;2024-01-06T01:14:24;97592.66;;;-0.25;81.17
84271;BME280;74614;50.032;19.566;2024-01-06T01:16:26;97592.54;;;-0.23;81.36
84271;BME280;74614;50.032;19.566;2024-01-06T01:18:24;97592.78;;;-0.26;81.34
84271;BME280;74614;50.032;19.566;2024-01-06T01:20:24;97599.46;;;-0.21;81.19
84271;BME280;74614;50.032;19.566;2024-01-06T01:22:25;97599.90;;;-0.17;81.11
84271;BME280;74614;50.032;19.566;2024-01-06T01:24:28;97601.38;;;-0.13;80.98
84271;BME280;74614;50.032;19.566;2024-01-06T01:26:24;97591.82;;;-0.14;81.08
84271;BME280;74614;50.032;19.566;2024-01-06T01:28:29;97592.50;;;-0.18;81.21
84271;BME280;74614;50.032;19.566;2024-01-06T01:30:24;97594.71;;;-0.11;81.06
84271;BME280;74614;50.032;19.566;2024-01-06T01:32:23;97597.91;;;-0.22;81.43
84271;BME280;74614;50.032;19.566;2024-01-06T01:34:24;97599.38;;;-0.18;81.31
84271;BME280;74614;50.032;19.566;2024-01-06T01:36:24;97598.47;;;-0.14;81.11
84271;BME280;74614;50.032;19.566;2024-01-06T01:38:23;97600.19;;;-0.20;81.36
84271;BME280;74614;50.032;19.566;2024-01-06T01:40:24;97596.17;;;-0.27;81.54
84271;BME280;74614;50.032;19.566;2024-01-06T01:42:23;97597.67;;;-0.25;81.56
84271;BME280;74614;50.032;19.566;2024-01-06T01:44:24;97600.15;;;-0.21;81.35
84271;BME280;74614;50.032;19.566;2024-01-06T01:46:24;97600.21;;;-0.28;81.40
84271;BME280;74614;50.032;19.566;2024-01-06T01:48:24;97594.04;;;-0.27;81.55
84271;BME280;74614;50.032;19.566;2024-01-06T01:50:27;97595.86;;;-0.28;81.61
84271;BME280;74614;50.032;19.566;2024-01-06T01:52:35;97595.32;;;-0.24;81.48
84271;BME280;74614;50.032;19.566;2024-01-06T01:54:26;97589.96;;;-0.27;81.62
84271;BME280;74614;50.032;19.566;2024-01-06T01:56:25;97587.91;;;-0.21;81.59
84271;BME280;74614;50.032;19.566;2024-01-06T01:58:24;97584.85;;;-0.15;81.20
84271;BME280;74614;50.032;19.566;2024-01-06T02:00:24;97580.85;;;-0.15;81.13
84271;BME280;74614;50.032;19.566;2024-01-06T02:02:26;97577.18;;;-0.15;81.12
84271;BME280;74614;50.032;19.566;2024-01-06T02:04:33;97577.89;;;-0.09;81.09
84271;BME280;74614;50.032;19.566;2024-01-06T02:06:25;97580.35;;;-0.12;80.89
84271;BME280;74614;50.032;19.566;2024-01-06T02:08:25;97580.61;;;-0.11;80.93
84271;BME280;74614;50.032;19.566;2024-01-06T02:10:23;97590.12;;;-0.11;81.07
84271;BME280;74614;50.032;19.566;2024-01-06T02:12:25;97588.17;;;-0.03;80.77
84271;BME280;74614;50.032;19.566;2024-01-06T02:14:24;97594.94;;;0.01;80.67
84271;BME280;74614;50.032;19.566;2024-01-06T02:16:24;97588.72;;;0.06;80.60
84271;BME280;74614;50.032;19.566;2024-01-06T02:18:25;97587.27;;;0.08;80.56
84271;BME280;74614;50.032;19.566;2024-01-06T02:20:30;97589.51;;;0.17;80.56
84271;BME280;74614;50.032;19.566;2024-01-06T02:22:26;97584.42;;;0.13;80.03
84271;BME280;74614;50.032;19.566;2024-01-06T02:24:24;97589.14;;;0.15;80.35
84271;BME280;74614;50.032;19.566;2024-01-06T02:26:25;97589.54;;;0.27;80.27
84271;BME280;74614;50.032;19.566;2024-01-06T02:28:25;97592.25;;;0.24;79.91
84271;BME280;74614;50.032;19.566;2024-01-06T02:30:24;97594.88;;;0.21;79.63
84271;BME280;74614;50.032;19.566;2024-01-06T02:32:28;97592.99;;;0.10;79.95
84271;BME280;74614;50.032;19.566;2024-01-06T02:34:24;97594.54;;;0.13;80.12
84271;BME280;74614;50.032;19.566;2024-01-06T02:36:26;97592.06;;;0.10;80.05
84271;BME280;74614;50.032;19.566;2024-01-06T02:38:23;97587.83;;;0.14;80.11
84271;BME280;74614;50.032;19.566;2024-01-06T02:40:24;97582.62;;;0.17;80.15
84271;BME280;74614;50.032;19.566;2024-01-06T02:42:23;97584.16;;;0.17;80.12
84271;BME280;74614;50.032;19.566;2024-01-06T02:44:27;97584.09;;;0.27;80.24
84271;BME280;74614;50.032;19.566;2024-01-06T02:46:25;97585.09;;;0.34;79.75
84271;BME280;74614;50.032;19.566;2024-01-06T02:48:26;97581.96;;;0.30;79.91
84271;BME280;74614;50.032;19.566;2024-01-06T02:50:23;97577.46;;;0.21;79.72
84271;BME280;74614;50.032;19.566;2024-01-06T02:52:23;97575.80;;;0.22;80.09
84271;BME280;74614;50.032;19.566;2024-01-06T02:54:24;97567.47;;;0.22;80.01
84271;BME280;74614;50.032;19.566;2024-01-06T02:56:25;97569.51;;;0.22;79.88
84271;BME280;74614;50.032;19.566;2024-01-06T02:58:24;97566.34;;;0.28;79.86
84271;BME280;74614;50.032;19.566;2024-01-06T03:00:32;97564.21;;;0.31;79.93
84271;BME280;74614;50.032;19.566;2024-01-06T03:02:24;97570.48;;;0.20;79.70
84271;BME280;74614;50.032;19.566;2024-01-06T03:04:23;97569.41;;;0.15;80.06
84271;BME280;74614;50.032;19.566;2024-01-06T03:06:28;97570.70;;;0.19;80.05
84271;BME280;74614;50.032;19.566;2024-01-06T03:08:28;97572.53;;;0.27;80.05
84271;BME280;74614;50.032;19.566;2024-01-06T03:10:23;97574.28;;;0.40;79.79
84271;BME280;74614;50.032;19.566;2024-01-06T03:12:26;97574.90;;;0.43;79.73
84271;BME280;74614;50.032;19.566;2024-01-06T03:14:25;97568.36;;;0.47;79.59
84271;BME280;74614;50.032;19.566;2024-01-06T03:16:25;97565.62;;;0.46;79.24
84271;BME280;74614;50.032;19.566;2024-01-06T03:18:24;97563.81;;;0.36;79.55
84271;BME280;74614;50.032;19.566;2024-01-06T03:20:27;97554.76;;;0.38;79.74
84271;BME280;74614;50.032;19.566;2024-01-06T03:22:33;97558.70;;;0.39;79.41
84271;BME280;74614;50.032;19.566;2024-01-06T03:24:25;97558.59;;;0.38;79.51
84271;BME280;74614;50.032;19.566;2024-01-06T03:26:24;97559.26;;;0.47;79.68
84271;BME280;74614;50.032;19.566;2024-01-06T03:28:24;97554.41;;;0.61;78.58
84271;BME280;74614;50.032;19.566;2024-01-06T03:30:26;97557.71;;;0.54;78.75
84271;BME280;74614;50.032;19.566;2024-01-06T03:32:24;97558.42;;;0.44;79.08
84271;BME280;74614;50.032;19.566;2024-01-06T03:34:24;97562.90;;;0.51;79.20
84271;BME280;74614;50.032;19.566;2024-01-06T03:36:24;97555.79;;;0.56;79.09
84271;BME280;74614;50.032;19.566;2024-01-06T03:38:27;97559.29;;;0.53;78.88
84271;BME280;74614;50.032;19.566;2024-01-06T03:40:24;97557.84;;;0.41;79.01
84271;BME280;74614;50.032;19.566;2024-01-06T03:42:27;97561.92;;;0.45;79.28
84271;BME280;74614;50.032;19.566;2024-01-06T03:44:23;97564.81;;;0.49;79.36
84271;BME280;74614;50.032;19.566;2024-01-06T03:46:34;97564.06;;;0.56;79.13
84271;BME280;74614;50.032;19.566;2024-01-06T03:48:26;97561.81;;;0.55;78.86
84271;BME280;74614;50.032;19.566;2024-01-06T03:50:27;97564.29;;;0.49;78.79
84271;BME280;74614;50.032;19.566;2024-01-06T03:52:24;97562.21;;;0.54;78.95
84271;BME280;74614;50.032;19.566;2024-01-06T03:54:31;97559.47;;;0.56;79.03
84271;BME280;74614;50.032;19.566;2024-01-06T03:56:23;97562.09;;;0.52;78.80
84271;BME280;74614;50.032;19.566;2024-01-06T03:58:27;97557.14;;;0.52;79.04
84271;BME280;74614;50.032;19.566;2024-01-06T04:00:25;97553.98;;;0.58;78.94
84271;BME280;74614;50.032;19.566;2024-01-06T04:02:30;97554.58;;;0.61;79.12
84271;BME280;74614;50.032;19.566;2024-01-06T04:04:25;97553.32;;;0.73;78.93
84271;BME280;74614;50.032;19.566;2024-01-06T04:06:27;97554.20;;;0.74;78.53
84271;BME280;74614;50.032;19.566;2024-01-06T04:08:24;97554.06;;;0.61;78.68
84271;BME280;74614;50.032;19.566;2024-01-06T04:10:30;97559.56;;;0.60;78.87
84271;BME280;74614;50.032;19.566;2024-01-06T04:12:24;97561.10;;;0.57;78.88
84271;BME280;74614;50.032;19.566;2024-01-06T04:14:28;97560.90;;;0.67;78.96
84271;BME280;74614;50.032;19.566;2024-01-06T04:16:26;97562.63;;;0.68;78.99
84271;BME280;74614;50.032;19.566;2024-01-06T04:18:28;97560.34;;;0.69;78.52
84271;BME280;74614;50.032;19.566;2024-01-06T04:20:29;97560.54;;;0.58;78.85
84271;BME280;74614;50.032;19.566;2024-01-06T04:22:28;97563.88;;;0.64;78.96
84271;BME280;74614;50.032;19.566;2024-01-06T04:24:23;97564.68;;;0.72;78.76
84271;BME280;74614;50.032;19.566;2024-01-06T04:26:30;97563.26;;;0.66;78.78
84271;BME280;74614;50.032;19.566;2024-01-06T04:28:31;97560.09;;;0.72;78.93
84271;BME280;74614;50.032;19.566;2024-01-06T04:30:30;97552.71;;;0.85;78.80
84271;BME280;74614;50.032;19.566;2024-01-06T04:32:28;97560.88;;;0.95;78.30
84271;BME280;74614;50.032;19.566;2024-01-06T04:34:39;97567.55;;;0.83;77.92
84271;BME280;74614;50.032;19.566;2024-01-06T04:37:26;97566.16;;;0.81;78.66
84271;BME280;74614;50.032;19.566;2024-01-06T04:39:24;97566.50;;;0.84;78.44
84271;BME280;74614;50.032;19.566;2024-01-06T04:41:28;97560.49;;;0.82;78.35
84271;BME280;74614;50.032;19.566;2024-01-06T04:43:27;97568.30;;;0.82;78.37
84271;BME280;74614;50.032;19.566;2024-01-06T04:45:26;97580.88;;;0.88;78.27
84271;BME280;74614;50.032;19.566;2024-01-06T04:47:25;97571.97;;;0.96;78.03
84271;BME280;74614;50.032;19.566;2024-01-06T04:49:24;97579.72;;;0.89;78.30
84271;BME280;74614;50.032;19.566;2024-01-06T04:51:26;97579.23;;;0.91;77.93
84271;BME280;74614;50.032;19.566;2024-01-06T04:53:24;97587.01;;;0.85;78.06
84271;BME280;74614;50.032;19.566;2024-01-06T04:55:24;97590.23;;;0.81;78.25
84271;BME280;74614;50.032;19.566;2024-01-06T04:57:25;97595.97;;;0.83;78.12
84271;BME280;74614;50.032;19.566;2024-01-06T04:59:25;97592.44;;;0.81;78.06
84271;BME280;74614;50.032;19.566;2024-01-06T05:01:24;97585.14;;;0.77;78.23
84271;BME280;74614;50.032;19.566;2024-01-06T05:03:24;97591.91;;;0.84;78.30
84271;BME280;74614;50.032;19.566;2024-01-06T05:05:23;97592.70;;;0.95;78.31
84271;BME280;74614;50.032;19.566;2024-01-06T05:07:26;97595.15;;;1.06;78.00
84271;BME280;74614;50.032;19.566;2024-01-06T05:09:28;97593.02;;;1.09;77.60
84271;BME280;74614;50.032;19.566;2024-01-06T05:11:23;97594.12;;;1.06;77.25
84271;BME280;74614;50.032;19.566;2024-01-06T05:13:24;97590.94;;;0.97;77.44
84271;BME280;74614;50.032;19.566;2024-01-06T05:15:24;97593.72;;;0.84;78.05
84271;BME280;74614;50.032;19.566;2024-01-06T05:17:25;97596.75;;;0.86;78.33
84271;BME280;74614;50.032;19.566;2024-01-06T05:19:25;97600.66;;;0.90;78.21
84271;BME280;74614;50.032;19.566;2024-01-06T05:21:29;97604.53;;;0.81;78.25
84271;BME280;74614;50.032;19.566;2024-01-06T05:23:28;97598.60;;;0.86;78.04
84271;BME280;74614;50.032;19.566;2024-01-06T05:25:27;97597.72;;;0.85;78.36
84271;BME280;74614;50.032;19.566;2024-01-06T05:27:24;97594.85;;;0.82;78.31
84271;BME280;74614;50.032;19.566;2024-01-06T05:29:31;97596.54;;;0.85;78.42
84271;BME280;74614;50.032;19.566;2024-01-06T05:31:25;97592.35;;;0.76;78.14
84271;BME280;74614;50.032;19.566;2024-01-06T05:33:24;97592.97;;;0.64;78.68
84271;BME280;74614;50.032;19.566;2024-01-06T05:35:27;97595.02;;;0.57;78.65
84271;BME280;74614;50.032;19.566;2024-01-06T05:37:24;97591.40;;;0.47;79.04
84271;BME280;74614;50.032;19.566;2024-01-06T05:39:24;97592.92;;;0.47;79.05
84271;BME280;74614;50.032;19.566;2024-01-06T05:41:25;97598.77;;;0.33;79.40
84271;BME280;74614;50.032;19.566;2024-01-06T05:43:23;97594.12;;;0.41;79.31
84271;BME280;74614;50.032;19.566;2024-01-06T05:45:24;97597.14;;;0.53;78.93
84271;BME280;74614;50.032;19.566;2024-01-06T05:47:24;97597.15;;;0.57;78.77
84271;BME280;74614;50.032;19.566;2024-01-06T05:49:24;97595.04;;;0.48;79.15
84271;BME280;74614;50.032;19.566;2024-01-06T05:51:24;97600.12;;;0.54;79.05
84271;BME280;74614;50.032;19.566;2024-01-06T05:53:24;97602.71;;;0.61;78.75
84271;BME280;74614;50.032;19.566;2024-01-06T05:55:24;97598.91;;;0.62;78.81
84271;BME280;74614;50.032;19.566;2024-01-06T05:57:24;97596.81;;;0.63;78.57
84271;BME280;74614;50.032;19.566;2024-01-06T05:59:23;97601.07;;;0.57;78.62
84271;BME280;74614;50.032;19.566;2024-01-06T06:01:26;97602.14;;;0.56;78.83
84271;BME280;74614;50.032;19.566;2024-01-06T06:03:24;97606.61;;;0.48;78.99
84271;BME280;74614;50.032;19.566;2024-01-06T06:05:25;97609.04;;;0.46;79.05
84271;BME280;74614;50.032;19.566;2024-01-06T06:07:24;97605.72;;;0.53;79.13
84271;BME280;74614;50.032;19.566;2024-01-06T06:09:26;97609.89;;;0.63;78.87
84271;BME280;74614;50.032;19.566;2024-01-06T06:11:24;97610.83;;;0.63;78.97
84271;BME280;74614;50.032;19.566;2024-01-06T06:13:26;97608.29;;;0.68;78.80
84271;BME280;74614;50.032;19.566;2024-01-06T06:15:22;97611.71;;;0.65;78.99
84271;BME280;74614;50.032;19.566;2024-01-06T06:17:24;97606.09;;;0.57;79.22
84271;BME280;74614;50.032;19.566;2024-01-06T06:19:24;97606.35;;;0.48;79.50
84271;BME280;74614;50.032;19.566;2024-01-06T06:21:24;97607.17;;;0.39;79.66
84271;BME280;74614;50.032;19.566;2024-01-06T06:23:26;97606.55;;;0.49;79.44
84271;BME280;74614;50.032;19.566;2024-01-06T06:25:25;97607.99;;;0.62;79.47
84271;BME280;74614;50.032;19.566;2024-01-06T06:27:25;97614.09;;;0.68;79.27
84271;BME280;74614;50.032;19.566;2024-01-06T06:29:25;97615.08;;;0.60;79.33
84271;BME280;74614;50.032;19.566;2024-01-06T06:31:23;97616.09;;;0.56;79.61
84271;BME280;74614;50.032;19.566;2024-01-06T06:33:23;97617.17;;;0.61;79.30
84271;BME280;74614;50.032;19.566;2024-01-06T06:35:26;97615.04;;;0.72;79.20
84271;BME280;74614;50.032;19.566;2024-01-06T06:37:23;97619.69;;;0.78;79.17
84271;BME280;74614;50.032;19.566;2024-01-06T06:39:26;97628.70;;;0.89;79.04
84271;BME280;74614;50.032;19.566;2024-01-06T06:41:25;97630.14;;;0.95;78.88
84271;BME280;74614;50.032;19.566;2024-01-06T06:43:26;97631.87;;;0.96;78.50
84271;BME280;74614;50.032;19.566;2024-01-06T06:45:29;97631.63;;;0.90;78.71
84271;BME280;74614;50.032;19.566;2024-01-06T06:47:24;97634.49;;;0.92;78.83
84271;BME280;74614;50.032;19.566;2024-01-06T06:49:26;97633.72;;;0.95;78.71
84271;BME280;74614;50.032;19.566;2024-01-06T06:51:32;97631.88;;;0.76;78.95
84271;BME280;74614;50.032;19.566;2024-01-06T06:53:24;97634.06;;;0.67;79.32
84271;BME280;74614;50.032;19.566;2024-01-06T06:55:23;97634.03;;;0.73;79.37
84271;BME280;74614;50.032;19.566;2024-01-06T06:57:23;97633.82;;;0.75;79.45
84271;BME280;74614;50.032;19.566;2024-01-06T06:59:23;97635.26;;;0.64;79.73
84271;BME280;74614;50.032;19.566;2024-01-06T07:01:23;97632.62;;;0.68;79.73
84271;BME280;74614;50.032;19.566;2024-01-06T07:03:27;97638.37;;;0.73;79.62
84271;BME280;74614;50.032;19.566;2024-01-06T07:05:27;97634.98;;;0.77;79.43
84271;BME280;74614;50.032;19.566;2024-01-06T07:07:27;97633.12;;;0.74;79.48
84271;BME280;74614;50.032;19.566;2024-01-06T07:09:29;97635.69;;;0.63;79.66
84271;BME280;74614;50.032;19.566;2024-01-06T07:11:24;97639.51;;;0.54;80.14
84271;BME280;74614;50.032;19.566;2024-01-06T07:13:24;97645.72;;;0.68;79.86
84271;BME280;74614;50.032;19.566;2024-01-06T07:15:23;97636.85;;;0.81;79.70
84271;BME280;74614;50.032;19.566;2024-01-06T07:17:26;97643.64;;;0.80;79.40
84271;BME280;74614;50.032;19.566;2024-01-06T07:19:30;97649.53;;;0.74;79.61
84271;BME280;74614;50.032;19.566;2024-01-06T07:21:24;97648.50;;;0.76;79.53
84271;BME280;74614;50.032;19.566;2024-01-06T07:23:28;97638.46;;;0.80;79.53
84271;BME280;74614;50.032;19.566;2024-01-06T07:25:25;97641.09;;;0.73;79.51
84271;BME280;74614;50.032;19.566;2024-01-06T07:27:24;97639.79;;;0.75;79.67
84271;BME280;74614;50.032;19.566;2024-01-06T07:29:24;97639.16;;;0.82;79.48
84271;BME280;74614;50.032;19.566;2024-01-06T07:31:24;97640.10;;;0.81;79.47
84271;BME280;74614;50.032;19.566;2024-01-06T07:33:24;97643.33;;;0.78;79.70
84271;BME280;74614;50.032;19.566;2024-01-06T07:35:23;97647.31;;;0.87;79.83
84271;BME280;74614;50.032;19.566;2024-01-06T07:37:25;97649.49;;;0.89;79.58
84271;BME280;74614;50.032;19.566;2024-01-06T07:39:24;-3200.00;;;0.00;0.00
84271;BME280;74614;50.032;19.566;2024-01-06T07:41:23;-3200.00;;;0.00;0.00
84271;BME280;74614;50.032;19.566;2024-01-06T07:43:25;-3200.00;;;0.00;0.00
84271;BME280;74614;50.032;19.566;2024-01-06T07:45:24;-3200.00;;;0.00;0.00
84271;BME280;74614;50.032;19.566;2024-01-06T07:47:23;97653.00;;;0.56;80.39
84271;BME280;74614;50.032;19.566;2024-01-06T07:49:26;97651.54;;;0.62;80.51
84271;BME280;74614;50.032;19.566;2024-01-06T07:51:24;97652.63;;;0.61;80.62
84271;BME280;74614;50.032;19.566;2024-01-06T07:53:53;97651.85;;;0.65;80.32
84271;BME280;74614;50.032;19.566;2024-01-06T07:56:24;97652.66;;;0.59;80.64
84271;BME280;74614;50.032;19.566;2024-01-06T07:58:27;97655.50;;;0.65;80.55
84271;BME280;74614;50.032;19.566;2024-01-06T08:00:28;97643.19;;;0.69;80.79
84271;BME280;74614;50.032;19.566;2024-01-06T08:02:28;97646.86;;;0.76;80.58
84271;BME280;74614;50.032;19.566;2024-01-06T08:04:26;97656.34;;;0.84;80.42
84271;BME280;74614;50.032;19.566;2024-01-06T08:06:33;97656.79;;;0.82;80.85
84271;BME280;74614;50.032;19.566;2024-01-06T08:09:19;97663.32;;;0.74;81.20
84271;BME280;74614;50.032;19.566;2024-01-06T08:11:19;97662.69;;;0.76;80.86
84271;BME280;74614;50.032;19.566;2024-01-06T08:13:20;97664.09;;;0.71;81.01
84271;BME280;74614;50.032;19.566;2024-01-06T08:15:19;97663.93;;;0.75;80.96
84271;BME280;74614;50.032;19.566;2024-01-06T08:17:21;97667.78;;;0.75;80.68
84271;BME280;74614;50.032;19.566;2024-01-06T08:19:19;97664.82;;;0.83;80.66
84271;BME280;74614;50.032;19.566;2024-01-06T08:21:19;97664.07;;;0.91;80.55
84271;BME280;74614;50.032;19.566;2024-01-06T08:23:19;97664.47;;;0.93;80.64
84271;BME280;74614;50.032;19.566;2024-01-06T08:25:20;97671.96;;;1.01;80.56
84271;BME280;74614;50.032;19.566;2024-01-06T08:27:21;97679.91;;;1.20;80.37
84271;BME280;74614;50.032;19.566;2024-01-06T08:29:20;97681.33;;;1.19;79.82
84271;BME280;74614;50.032;19.566;2024-01-06T08:31:19;97686.13;;;1.14;80.21
84271;BME280;74614;50.032;19.566;2024-01-06T08:33:22;97686.14;;;1.18;80.17
84271;BME280;74614;50.032;19.566;2024-01-06T08:35:19;97685.39;;;1.19;80.05
84271;BME280;74614;50.032;19.566;2024-01-06T08:37:27;97689.89;;;1.14;80.35
84271;BME280;74614;50.032;19.566;2024-01-06T08:39:23;97686.73;;;1.17;80.17
84271;BME280;74614;50.032;19.566;2024-01-06T08:41:26;97692.19;;;1.28;80.23
84271;BME280;74614;50.032;19.566;2024-01-06T08:43:24;97688.79;;;1.28;80.10
84271;BME280;74614;50.032;19.566;2024-01-06T08:45:30;97688.07;;;1.27;79.93
84271;BME280;74614;50.032;19.566;2024-01-06T08:47:23;97686.65;;;1.28;80.10
84271;BME280;74614;50.032;19.566;2024-01-06T08:49:29;97689.43;;;1.31;80.21
84271;BME280;74614;50.032;19.566;2024-01-06T08:51:27;97688.89;;;1.37;80.14
84271;BME280;74614;50.032;19.566;2024-01-06T08:53:27;97685.59;;;1.31;79.93
84271;BME280;74614;50.032;19.566;2024-01-06T08:55:29;97688.18;;;1.36;79.96
84271;BME280;74614;50.032;19.566;2024-01-06T08:57:30;97689.70;;;1.38;79.90
84271;BME280;74614;50.032;19.566;2024-01-06T08:59:25;97684.94;;;1.32;80.11
84271;BME280;74614;50.032;19.566;2024-01-06T09:01:28;97690.14;;;1.35;80.14
84271;BME280;74614;50.032;19.566;2024-01-06T09:03:31;97688.38;;;1.30;80.10
84271;BME280;74614;50.032;19.566;2024-01-06T09:05:30;97686.70;;;1.31;80.27
84271;BME280;74614;50.032;19.566;2024-01-06T09:07:24;97690.92;;;1.36;80.25
84271;BME280;74614;50.032;19.566;2024-01-06T09:09:28;97690.29;;;1.35;80.25
84271;BME280;74614;50.032;19.566;2024-01-06T09:11:24;97691.70;;;1.37;80.23
84271;BME280;74614;50.032;19.566;2024-01-06T09:13:33;97686.72;;;1.42;80.11
84271;BME280;74614;50.032;19.566;2024-01-06T09:15:26;97687.90;;;1.46;80.15
84271;BME280;74614;50.032;19.566;2024-01-06T09:17:33;97689.01;;;1.42;80.21
84271;BME280;74614;50.032;19.566;2024-01-06T09:19:27;97682.79;;;1.42;80.19
84271;BME280;74614;50.032;19.566;2024-01-06T09:21:28;97684.23;;;1.50;80.15
84271;BME280;74614;50.032;19.566;2024-01-06T09:23:24;97684.65;;;1.44;80.21
84271;BME280;74614;50.032;19.566;2024-01-06T09:25:29;97687.97;;;1.45;80.25
84271;BME280;74614;50.032;19.566;2024-01-06T09:27:24;97684.65;;;1.46;80.17
84271;BME280;74614;50.032;19.566;2024-01-06T09:29:32;97684.49;;;1.45;80.32
84271;BME280;74614;50.032;19.566;2024-01-06T09:31:24;97689.28;;;1.47;80.49
84271;BME280;74614;50.032;19.566;2024-01-06T09:33:34;97679.95;;;1.56;80.59
84271;BME280;74614;50.032;19.566;2024-01-06T09:35:25;97683.55;;;1.60;80.35
84271;BME280;74614;50.032;19.566;2024-01-06T09:37:28;97687.26;;;1.64;80.00
84271;BME280;74614;50.032;19.566;2024-01-06T09:39:24;97686.92;;;1.67;80.46
84271;BME280;74614;50.032;19.566;2024-01-06T09:41:31;97685.42;;;1.69;80.18
84271;BME280;74614;50.032;19.566;2024-01-06T09:43:28;97680.55;;;1.65;80.61
84271;BME280;74614;50.032;19.566;2024-01-06T09:45:29;97682.48;;;1.64;80.51
84271;BME280;74614;50.032;19.566;2024-01-06T09:47:27;97681.41;;;1.82;80.48
84271;BME280;74614;50.032;19.566;2024-01-06T09:49:32;97682.37;;;1.90;80.23
84271;BME280;74614;50.032;19.566;2024-01-06T09:52:21;97680.57;;;1.82;80.62
84271;BME280;74614;50.032;19.566;2024-01-06T09:54:23;97679.42;;;1.87;80.24
84271;BME280;74614;50.032;19.566;2024-01-06T09:56:20;97675.83;;;1.79;80.37
84271;BME280;74614;50.032;19.566;2024-01-06T09:58:19;97674.00;;;1.81;80.51
84271;BME280;74614;50.032;19.566;2024-01-06T10:00:21;97682.29;;;1.94;80.46
84271;BME280;74614;50.032;19.566;2024-01-06T10:02:23;97679.80;;;1.93;80.26
84271;BME280;74614;50.032;19.566;2024-01-06T10:04:21;97679.98;;;2.02;80.21
84271;BME280;74614;50.032;19.566;2024-01-06T10:06:20;97674.53;;;2.02;79.81
84271;BME280;74614;50.032;19.566;2024-01-06T10:08:21;97674.72;;;1.96;80.07
84271;BME280;74614;50.032;19.566;2024-01-06T10:10:22;97670.95;;;1.86;80.42
84271;BME280;74614;50.032;19.566;2024-01-06T10:12:24;97668.47;;;1.82;80.63
84271;BME280;74614;50.032;19.566;2024-01-06T10:14:23;97670.90;;;1.75;80.76
84271;BME280;74614;50.032;19.566;2024-01-06T10:16:20;97672.86;;;1.74;80.81
84271;BME280;74614;50.032;19.566;2024-01-06T10:18:19;97672.64;;;1.81;80.76
84271;BME280;74614;50.032;19.566;2024-01-06T10:20:19;97673.64;;;1.94;80.76
84271;BME280;74614;50.032;19.566;2024-01-06T10:22:20;97669.32;;;2.06;80.52
84271;BME280;74614;50.032;19.566;2024-01-06T10:24:20;97667.76;;;2.10;80.54
84271;BME280;74614;50.032;19.566;2024-01-06T10:26:20;97663.32;;;2.01;80.42
84271;BME280;74614;50.032;19.566;2024-01-06T10:28:21;97669.98;;;2.01;80.66
84271;BME280;74614;50.032;19.566;2024-01-06T10:30:26;97670.40;;;1.97;80.68
84271;BME280;74614;50.032;19.566;2024-01-06T10:32:19;97669.13;;;1.92;80.48
84271;BME280;74614;50.032;19.566;2024-01-06T10:34:20;97668.40;;;1.86;81.00
84271;BME280;74614;50.032;19.566;2024-01-06T10:36:21;97662.54;;;1.91;81.11